Chenois Creek, Washington
Current Conditions -  °F | °C
As of 2:53 PM on Wednesday 22 Oct 2014 (Local Time) from KHQM Reporting Station
Moderate Rain Moderate Rain  
Wind Chill: 56°   Ceiling: 1900
Heat Index: 56°   Visibility: 2mi
Dew Point: 56°   Wind: 7mph
Humidity: 100%   Direction: 50°NE
Pressure: 29.6"   Gusts: NA
Location:  47.0202°N, 123.878°W
Report Text: KHQM 222153Z AUTO 05006KT 2SM RA BR SCT015 BKN019 OVC044 13/13 A2960 RMK AO2 SLP028 P0018 T01330133
Loading
Personal Weather Stations






























Interactive Weather Map
Tropical Storm Tracking
New forecast layout! Learn more

10-Day Weather Forecast

Advertisements
Track Severe Weather on mobile